Time;durP1;ratioP1;P1;durP2;ratioP2;P2;SDS_P1;SDS_P2;PMS_P1;PMS_P2;Temp;Humidity;BMP_temperature;BMP_pressure;BME280_temperature;BME280_humidity;BME280_pressure;Samples;Min_cycle;Max_cycle;Signal;HPM_P1;HPM_P2
2022/11/08 00:02:08;;;;;;;5.72;1.73;;;;;;;;;;5056467;28;20037;-61
2022/11/08 00:04:34;;;;;;;3.33;0.98;;;;;;;;;;5056238;28;20064;-61
2022/11/08 00:15:14;;;;;;;1.23;0.60;;;;;;;;;;5033179;28;20129;-60
2022/11/08 00:17:40;;;;;;;2.70;0.70;;;;;;;;;;5033129;28;20033;-61
2022/11/08 00:20:07;;;;;;;2.42;0.60;;;;;;;;;;5033104;28;20132;-61
2022/11/08 00:22:33;;;;;;;4.90;0.80;;;;;;;;;;5033194;28;20033;-60
2022/11/08 00:24:59;;;;;;;3.28;0.70;;;;;;;;;;5022063;28;20050;-60
2022/11/08 00:27:26;;;;;;;1.98;0.95;;;;;;;;;;4973125;28;20027;-61
2022/11/08 00:29:52;;;;;;;5.80;1.00;;;;;;;;;;4973320;28;20046;-61
2022/11/08 00:32:22;;;;;;;7.60;0.93;;;;;;;;;;4973255;28;20023;-61
2022/11/08 00:34:49;;;;;;;4.65;0.93;;;;;;;;;;4973311;28;20123;-61
2022/11/08 00:37:15;;;;;;;3.40;0.73;;;;;;;;;;4972738;28;20038;-60
2022/11/08 00:39:41;;;;;;;3.88;0.63;;;;;;;;;;4973178;28;20037;-60
2022/11/08 00:42:08;;;;;;;3.97;0.80;;;;;;;;;;4980533;28;20368;-61
2022/11/08 00:44:34;;;;;;;1.42;0.63;;;;;;;;;;4989846;28;20031;-60
2022/11/08 00:47:00;;;;;;;3.80;0.70;;;;;;;;;;4975710;28;20015;-61
2022/11/08 00:49:26;;;;;;;2.40;0.60;;;;;;;;;;4972940;28;20031;-61
2022/11/08 00:51:52;;;;;;;3.95;0.70;;;;;;;;;;4972624;28;20435;-60
2022/11/08 00:54:20;;;;;;;2.80;0.80;;;;;;;;;;4975494;28;20035;-61
2022/11/08 00:56:46;;;;;;;3.30;0.70;;;;;;;;;;4972201;28;20030;-60
2022/11/08 00:59:13;;;;;;;6.03;1.02;;;;;;;;;;4997273;28;20131;-61
2022/11/08 01:01:40;;;;;;;3.33;0.70;;;;;;;;;;4972491;28;20071;-61
2022/11/08 01:04:06;;;;;;;7.78;1.20;;;;;;;;;;4973010;28;20499;-61
2022/11/08 01:06:32;;;;;;;2.63;1.00;;;;;;;;;;4973022;28;20099;-61
2022/11/08 01:08:58;;;;;;;2.70;0.75;;;;;;;;;;4975886;28;20035;-61
2022/11/08 01:11:26;;;;;;;4.25;0.88;;;;;;;;;;4977728;28;20148;-61
2022/11/08 01:13:52;;;;;;;3.95;1.88;;;;;;;;;;4987325;28;20038;-60
2022/11/08 01:16:20;;;;;;;3.58;0.77;;;;;;;;;;4987636;28;20388;-61
2022/11/08 01:18:46;;;;;;;4.75;0.90;;;;;;;;;;4998659;28;20563;-61
2022/11/08 01:21:13;;;;;;;6.32;0.82;;;;;;;;;;4972459;28;20039;-61
2022/11/08 01:23:39;;;;;;;7.53;1.33;;;;;;;;;;4977124;28;20038;-61
2022/11/08 01:26:10;;;;;;;2.65;0.73;;;;;;;;;;4971953;28;20049;-61
2022/11/08 01:28:37;;;;;;;5.95;1.00;;;;;;;;;;4975338;28;20034;-60
2022/11/08 01:31:04;;;;;;;6.97;1.25;;;;;;;;;;4985784;28;20019;-61
2022/11/08 01:33:30;;;;;;;6.38;0.90;;;;;;;;;;4973514;28;20073;-60
2022/11/08 01:35:56;;;;;;;7.72;1.08;;;;;;;;;;4974191;28;20038;-60
2022/11/08 01:38:22;;;;;;;6.85;1.10;;;;;;;;;;4973333;28;20031;-60
2022/11/08 01:40:49;;;;;;;6.43;1.08;;;;;;;;;;4980011;28;20102;-60
2022/11/08 01:43:30;;;;;;;4.20;1.15;;;;;;;;;;4972034;28;20035;-61
2022/11/08 01:46:15;;;;;;;8.95;1.75;;;;;;;;;;4972010;28;20027;-60
2022/11/08 01:48:47;;;;;;;5.95;0.93;;;;;;;;;;4975351;28;20087;-60
2022/11/08 01:51:15;;;;;;;9.75;1.33;;;;;;;;;;4990810;28;20026;-60
2022/11/08 01:53:42;;;;;;;11.80;1.80;;;;;;;;;;4991222;28;20038;-61
2022/11/08 01:56:09;;;;;;;8.95;1.52;;;;;;;;;;4991140;28;20076;-61
2022/11/08 01:58:37;;;;;;;6.68;1.40;;;;;;;;;;4991311;28;20054;-60
2022/11/08 02:01:03;;;;;;;7.53;1.85;;;;;;;;;;4991308;28;20471;-60
2022/11/08 02:03:32;;;;;;;12.30;2.03;;;;;;;;;;4990987;28;20529;-61
2022/11/08 02:05:58;;;;;;;14.32;1.77;;;;;;;;;;4991460;28;20058;-60
2022/11/08 02:08:36;;;;;;;11.88;2.05;;;;;;;;;;4989288;28;20407;-61
2022/11/08 02:11:02;;;;;;;5.60;1.48;;;;;;;;;;4991024;28;20026;-61
2022/11/08 02:13:30;;;;;;;8.10;1.75;;;;;;;;;;4991069;28;20458;-60
2022/11/08 02:15:56;;;;;;;11.18;2.20;;;;;;;;;;4991062;28;20034;-60
2022/11/08 02:18:25;;;;;;;9.10;1.60;;;;;;;;;;4990224;28;20121;-60
2022/11/08 02:20:54;;;;;;;8.10;1.30;;;;;;;;;;4978417;28;20023;-60
2022/11/08 02:23:28;;;;;;;10.75;1.95;;;;;;;;;;4976299;28;20076;-61
2022/11/08 02:25:54;;;;;;;9.93;1.83;;;;;;;;;;4970717;28;20040;-60
2022/11/08 02:28:21;;;;;;;12.68;1.80;;;;;;;;;;4974065;28;20081;-61
2022/11/08 02:30:47;;;;;;;13.57;2.53;;;;;;;;;;4974327;28;20042;-60
2022/11/08 02:33:14;;;;;;;13.20;2.30;;;;;;;;;;4999870;28;20026;-61
2022/11/08 02:35:41;;;;;;;12.00;2.55;;;;;;;;;;4990492;28;20037;-60
2022/11/08 02:38:07;;;;;;;19.30;2.42;;;;;;;;;;4990248;28;20022;-61
2022/11/08 02:40:49;;;;;;;15.05;2.40;;;;;;;;;;4989275;28;20026;-60
2022/11/08 02:43:15;;;;;;;10.33;2.13;;;;;;;;;;4981795;28;20537;-60
2022/11/08 02:45:41;;;;;;;19.67;2.75;;;;;;;;;;4971361;28;20046;-60
2022/11/08 02:48:07;;;;;;;18.67;2.38;;;;;;;;;;4971211;28;20035;-60
2022/11/08 02:50:34;;;;;;;21.25;3.17;;;;;;;;;;4988528;28;20076;-61
2022/11/08 02:53:00;;;;;;;13.43;2.22;;;;;;;;;;4989705;28;20361;-60
2022/11/08 02:55:26;;;;;;;19.27;2.65;;;;;;;;;;4989492;28;20036;-60
2022/11/08 02:57:52;;;;;;;15.43;2.72;;;;;;;;;;4990578;28;20065;-60
2022/11/08 03:00:19;;;;;;;14.15;2.50;;;;;;;;;;4990239;28;20105;-61
2022/11/08 03:02:50;;;;;;;10.27;2.88;;;;;;;;;;4989592;28;20034;-60
2022/11/08 03:05:17;;;;;;;12.68;2.30;;;;;;;;;;4988973;28;20023;-60
2022/11/08 03:07:43;;;;;;;12.38;2.63;;;;;;;;;;4989982;28;20068;-60
2022/11/08 03:10:09;;;;;;;15.52;2.92;;;;;;;;;;4990330;28;20046;-60
2022/11/08 03:12:36;;;;;;;17.67;2.50;;;;;;;;;;4976831;28;20037;-60
2022/11/08 03:15:02;;;;;;;15.02;2.70;;;;;;;;;;4989820;28;20038;-60
2022/11/08 03:17:28;;;;;;;13.25;2.38;;;;;;;;;;4990021;28;20088;-61
2022/11/08 03:19:55;;;;;;;23.65;4.78;;;;;;;;;;4990297;28;20045;-61
2022/11/08 03:22:21;;;;;;;21.95;3.38;;;;;;;;;;4987824;28;20030;-61
2022/11/08 03:24:47;;;;;;;19.33;3.70;;;;;;;;;;4989317;28;20114;-60
2022/11/08 03:27:14;;;;;;;22.15;2.58;;;;;;;;;;4990092;28;20483;-61
2022/11/08 03:29:40;;;;;;;21.88;3.30;;;;;;;;;;4989876;28;20035;-60
2022/11/08 03:32:06;;;;;;;13.77;3.05;;;;;;;;;;4985935;28;20018;-60
2022/11/08 03:34:33;;;;;;;16.10;4.18;;;;;;;;;;4989454;28;20106;-60
2022/11/08 03:36:59;;;;;;;14.82;3.45;;;;;;;;;;4989859;28;20423;-60
2022/11/08 03:39:25;;;;;;;18.23;2.85;;;;;;;;;;4989941;28;20088;-61
2022/11/08 03:41:51;;;;;;;16.67;3.00;;;;;;;;;;4989343;28;20050;-61
2022/11/08 03:44:17;;;;;;;15.18;3.08;;;;;;;;;;4990173;28;20027;-60
2022/11/08 03:46:43;;;;;;;19.38;2.90;;;;;;;;;;4991155;28;20026;-61
2022/11/08 03:49:09;;;;;;;17.20;2.83;;;;;;;;;;4991323;28;20034;-60
2022/11/08 03:51:35;;;;;;;22.35;2.92;;;;;;;;;;4990827;28;20369;-60
2022/11/08 03:54:01;;;;;;;18.55;4.43;;;;;;;;;;4993166;28;20122;-60
2022/11/08 03:56:27;;;;;;;16.67;2.75;;;;;;;;;;4993037;28;20045;-60
2022/11/08 03:58:54;;;;;;;19.35;3.15;;;;;;;;;;4992715;28;20099;-60
2022/11/08 04:01:20;;;;;;;20.25;3.20;;;;;;;;;;4993356;28;20022;-60
2022/11/08 04:03:46;;;;;;;25.33;3.50;;;;;;;;;;4991325;28;20066;-60
2022/11/08 04:06:12;;;;;;;27.45;3.30;;;;;;;;;;4992756;28;20092;-61
2022/11/08 04:08:38;;;;;;;22.35;3.42;;;;;;;;;;4992736;28;20035;-60
2022/11/08 04:16:44;;;;;;;18.67;3.72;;;;;;;;;;5013447;28;20038;-60
2022/11/08 04:21:56;;;;;;;21.33;3.80;;;;;;;;;;5012305;28;20037;-61
2022/11/08 04:24:22;;;;;;;21.02;4.40;;;;;;;;;;5013043;28;20496;-61
2022/11/08 04:26:48;;;;;;;19.33;3.30;;;;;;;;;;5013326;28;20033;-60
2022/11/08 04:29:14;;;;;;;29.45;3.22;;;;;;;;;;5010699;28;20417;-60
2022/11/08 04:31:40;;;;;;;24.67;3.72;;;;;;;;;;4993187;28;20496;-60
2022/11/08 04:34:07;;;;;;;21.63;3.50;;;;;;;;;;4993407;28;20397;-60
2022/11/08 04:36:33;;;;;;;27.17;4.53;;;;;;;;;;4993183;28;20435;-60
2022/11/08 04:38:59;;;;;;;26.50;4.15;;;;;;;;;;4993440;28;20109;-60
2022/11/08 04:41:26;;;;;;;23.73;3.53;;;;;;;;;;4993443;28;20503;-60
2022/11/08 04:43:54;;;;;;;21.38;4.00;;;;;;;;;;4999309;28;20507;-60
2022/11/08 04:46:22;;;;;;;21.88;3.75;;;;;;;;;;5011420;28;20034;-60
2022/11/08 04:48:50;;;;;;;31.45;3.83;;;;;;;;;;5000430;28;20081;-60
2022/11/08 04:51:17;;;;;;;19.58;4.30;;;;;;;;;;4988569;28;20137;-61
2022/11/08 04:53:44;;;;;;;27.23;3.80;;;;;;;;;;4989197;28;20567;-61
2022/11/08 04:56:14;;;;;;;30.42;3.80;;;;;;;;;;4980549;28;20022;-60
2022/11/08 04:58:44;;;;;;;28.50;3.72;;;;;;;;;;4973805;28;20034;-60
2022/11/08 05:01:13;;;;;;;23.50;4.80;;;;;;;;;;4978088;28;20022;-60
2022/11/08 05:03:39;;;;;;;29.23;4.80;;;;;;;;;;4995331;28;20047;-60
2022/11/08 05:06:07;;;;;;;21.63;3.67;;;;;;;;;;4980014;28;20026;-60
2022/11/08 05:08:33;;;;;;;26.38;4.30;;;;;;;;;;4982154;28;20037;-60
2022/11/08 05:11:04;;;;;;;29.23;3.90;;;;;;;;;;4974698;28;20030;-60
2022/11/08 05:13:30;;;;;;;23.33;4.55;;;;;;;;;;4982822;28;20035;-61
2022/11/08 05:16:03;;;;;;;22.95;5.15;;;;;;;;;;4982153;28;20106;-61
2022/11/08 05:18:30;;;;;;;27.13;4.72;;;;;;;;;;4977033;28;20037;-60
2022/11/08 05:23:42;;;;;;;30.17;5.35;;;;;;;;;;4989103;28;20503;-60
2022/11/08 05:26:08;;;;;;;29.48;5.35;;;;;;;;;;4991461;28;20026;-60
2022/11/08 05:28:34;;;;;;;31.17;4.35;;;;;;;;;;4991727;28;20043;-60
2022/11/08 05:31:00;;;;;;;23.65;4.10;;;;;;;;;;4990648;28;20034;-61
2022/11/08 05:33:27;;;;;;;30.45;4.30;;;;;;;;;;4990288;28;20087;-60
2022/11/08 05:35:53;;;;;;;24.67;4.13;;;;;;;;;;4976674;28;20109;-60
2022/11/08 05:38:19;;;;;;;19.95;4.40;;;;;;;;;;4985600;28;20434;-60
2022/11/08 05:40:45;;;;;;;36.42;4.65;;;;;;;;;;4989338;28;20026;-60
2022/11/08 05:43:11;;;;;;;19.83;3.97;;;;;;;;;;4981718;28;20027;-61
2022/11/08 05:45:38;;;;;;;24.85;4.22;;;;;;;;;;4982952;28;20023;-61
2022/11/08 05:48:04;;;;;;;29.63;4.35;;;;;;;;;;5007665;28;20041;-60
2022/11/08 05:50:34;;;;;;;22.60;3.55;;;;;;;;;;4976943;28;20091;-60
2022/11/08 05:53:04;;;;;;;29.70;4.43;;;;;;;;;;4988566;28;20494;-60
2022/11/08 05:55:30;;;;;;;25.73;4.20;;;;;;;;;;4977788;28;20030;-60
2022/11/08 05:57:56;;;;;;;23.10;3.10;;;;;;;;;;4988743;28;20030;-60
2022/11/08 06:00:23;;;;;;;26.98;3.28;;;;;;;;;;4981233;28;20414;-61
2022/11/08 06:02:49;;;;;;;26.08;3.80;;;;;;;;;;4985308;28;20106;-60
2022/11/08 06:05:15;;;;;;;27.52;4.38;;;;;;;;;;4986232;28;20042;-60
2022/11/08 06:07:41;;;;;;;21.15;3.72;;;;;;;;;;4972227;28;20455;-60
2022/11/08 06:10:07;;;;;;;23.83;4.05;;;;;;;;;;4979454;28;20049;-60
2022/11/08 06:12:33;;;;;;;22.40;3.45;;;;;;;;;;4983039;28;20052;-60
2022/11/08 06:15:00;;;;;;;20.65;4.10;;;;;;;;;;4976359;28;20027;-60
2022/11/08 06:17:26;;;;;;;24.27;4.00;;;;;;;;;;4983236;28;20027;-60
2022/11/08 06:19:52;;;;;;;20.73;3.33;;;;;;;;;;4978316;28;20104;-60
2022/11/08 06:22:18;;;;;;;17.23;3.42;;;;;;;;;;4984749;28;20034;-61
2022/11/08 06:24:44;;;;;;;19.80;3.88;;;;;;;;;;4979756;28;20029;-61
2022/11/08 06:27:10;;;;;;;17.52;3.88;;;;;;;;;;4980479;28;20387;-62
2022/11/08 06:29:36;;;;;;;21.05;3.53;;;;;;;;;;4977874;28;20035;-62
2022/11/08 06:32:02;;;;;;;23.15;4.45;;;;;;;;;;4974607;28;20388;-62
2022/11/08 06:34:28;;;;;;;17.67;3.85;;;;;;;;;;4987490;28;20125;-61
2022/11/08 06:36:57;;;;;;;23.60;2.90;;;;;;;;;;4989319;28;20027;-61
2022/11/08 06:39:23;;;;;;;17.45;3.25;;;;;;;;;;4985743;28;20035;-61
2022/11/08 06:41:49;;;;;;;19.77;3.45;;;;;;;;;;5012277;28;20013;-62
2022/11/08 06:44:15;;;;;;;17.95;2.80;;;;;;;;;;4986542;28;20026;-62
2022/11/08 06:46:42;;;;;;;22.85;3.45;;;;;;;;;;4984694;28;20084;-61
2022/11/08 06:49:08;;;;;;;23.05;3.75;;;;;;;;;;4987550;28;20039;-62
2022/11/08 06:51:34;;;;;;;16.42;3.20;;;;;;;;;;4985494;28;20423;-61
2022/11/08 06:54:02;;;;;;;19.75;4.15;;;;;;;;;;4988725;28;20444;-62
2022/11/08 06:56:28;;;;;;;19.13;4.13;;;;;;;;;;4989776;28;20109;-61
2022/11/08 06:58:54;;;;;;;17.40;2.70;;;;;;;;;;4987971;28;20069;-61
2022/11/08 07:01:20;;;;;;;21.02;3.58;;;;;;;;;;4986627;28;20026;-61
2022/11/08 07:03:46;;;;;;;20.50;3.30;;;;;;;;;;4985127;28;20066;-61
2022/11/08 07:06:12;;;;;;;23.63;4.82;;;;;;;;;;4988419;28;20030;-62
2022/11/08 07:08:39;;;;;;;26.80;3.47;;;;;;;;;;4988234;28;20491;-62
2022/11/08 07:11:05;;;;;;;25.13;3.50;;;;;;;;;;4989421;28;20087;-62
2022/11/08 07:13:31;;;;;;;15.95;3.30;;;;;;;;;;4989608;28;20034;-62
2022/11/08 07:15:58;;;;;;;29.45;4.00;;;;;;;;;;4987971;28;20018;-62
2022/11/08 07:18:24;;;;;;;23.83;3.38;;;;;;;;;;4989191;28;20065;-62
2022/11/08 07:20:51;;;;;;;26.45;4.90;;;;;;;;;;4990885;28;20426;-62
2022/11/08 07:23:17;;;;;;;16.38;3.30;;;;;;;;;;4992984;28;20110;-62
2022/11/08 07:25:43;;;;;;;23.60;3.42;;;;;;;;;;4993050;28;20027;-62
2022/11/08 07:28:14;;;;;;;27.40;4.00;;;;;;;;;;4992813;28;20031;-62
2022/11/08 07:30:40;;;;;;;22.20;3.20;;;;;;;;;;4992448;28;20065;-62
2022/11/08 07:33:06;;;;;;;28.02;4.88;;;;;;;;;;4992994;28;20030;-62
2022/11/08 07:35:33;;;;;;;29.83;6.30;;;;;;;;;;4992979;28;20027;-62
2022/11/08 07:37:59;;;;;;;19.70;4.57;;;;;;;;;;4993153;28;20058;-61
2022/11/08 07:40:25;;;;;;;26.08;5.25;;;;;;;;;;4992865;28;20026;-61
2022/11/08 07:42:52;;;;;;;26.63;5.32;;;;;;;;;;4992715;28;20033;-61
2022/11/08 07:45:18;;;;;;;26.45;4.93;;;;;;;;;;4983764;28;20548;-61
2022/11/08 07:47:44;;;;;;;23.42;4.50;;;;;;;;;;4992801;28;20027;-61
2022/11/08 07:50:10;;;;;;;30.80;4.60;;;;;;;;;;4992682;28;20361;-61
2022/11/08 07:52:36;;;;;;;26.30;4.18;;;;;;;;;;4983536;28;20452;-62
2022/11/08 07:55:02;;;;;;;20.08;3.88;;;;;;;;;;4983300;28;20117;-61
2022/11/08 07:57:28;;;;;;;28.83;4.47;;;;;;;;;;4989074;28;20066;-62
2022/11/08 07:59:54;;;;;;;22.75;4.28;;;;;;;;;;4985805;28;20068;-61
2022/11/08 08:02:22;;;;;;;29.02;5.22;;;;;;;;;;4986785;28;20027;-61
2022/11/08 08:04:48;;;;;;;31.83;4.40;;;;;;;;;;4979852;28;20443;-61
2022/11/08 08:07:14;;;;;;;25.52;4.38;;;;;;;;;;4986649;28;20034;-61
2022/11/08 08:09:41;;;;;;;22.85;4.45;;;;;;;;;;4981114;28;20504;-62
2022/11/08 08:12:07;;;;;;;28.52;4.72;;;;;;;;;;4985014;28;20188;-61
2022/11/08 08:14:33;;;;;;;24.00;3.75;;;;;;;;;;4985367;28;20113;-61
2022/11/08 08:16:59;;;;;;;27.10;4.70;;;;;;;;;;4986196;28;20018;-62
2022/11/08 08:19:25;;;;;;;30.40;4.55;;;;;;;;;;4983597;28;20492;-62
2022/11/08 08:21:51;;;;;;;29.80;5.35;;;;;;;;;;4984229;28;20022;-61
2022/11/08 08:24:17;;;;;;;21.88;4.68;;;;;;;;;;4986978;28;20478;-61
2022/11/08 08:26:43;;;;;;;31.55;5.38;;;;;;;;;;4988152;28;20026;-61
2022/11/08 08:29:09;;;;;;;27.70;4.28;;;;;;;;;;4988008;28;20033;-62
2022/11/08 08:31:35;;;;;;;26.52;4.63;;;;;;;;;;4985132;28;20035;-62
2022/11/08 08:34:01;;;;;;;26.15;5.03;;;;;;;;;;4982893;28;20121;-62
2022/11/08 08:36:28;;;;;;;30.08;5.07;;;;;;;;;;4989022;28;20034;-61
2022/11/08 08:38:54;;;;;;;30.40;5.15;;;;;;;;;;5002474;28;20029;-61
2022/11/08 08:41:20;;;;;;;36.30;4.85;;;;;;;;;;4986901;28;20027;-61
2022/11/08 08:43:46;;;;;;;21.10;4.53;;;;;;;;;;4981987;28;20027;-62
2022/11/08 08:46:12;;;;;;;32.38;5.00;;;;;;;;;;4982293;28;20063;-62
2022/11/08 08:48:38;;;;;;;29.55;5.15;;;;;;;;;;4988378;28;20395;-61
2022/11/08 08:51:04;;;;;;;33.35;6.25;;;;;;;;;;4984303;28;20026;-62
2022/11/08 08:53:31;;;;;;;34.53;4.30;;;;;;;;;;4982952;28;20026;-61
2022/11/08 08:55:57;;;;;;;34.35;5.47;;;;;;;;;;4987824;28;20014;-62
2022/11/08 08:58:23;;;;;;;36.70;4.70;;;;;;;;;;4984025;28;20031;-61
2022/11/08 09:00:49;;;;;;;20.10;4.80;;;;;;;;;;4980373;28;20160;-62
2022/11/08 09:03:15;;;;;;;28.73;4.88;;;;;;;;;;4989152;28;20059;-62
2022/11/08 09:05:42;;;;;;;28.27;6.35;;;;;;;;;;4982134;28;20378;-62
2022/11/08 09:08:13;;;;;;;31.95;4.93;;;;;;;;;;4979681;28;20041;-61
2022/11/08 09:10:39;;;;;;;35.22;5.35;;;;;;;;;;4985159;28;20480;-63
2022/11/08 09:13:05;;;;;;;26.55;5.00;;;;;;;;;;4977201;28;20027;-62
2022/11/08 09:15:31;;;;;;;26.02;4.03;;;;;;;;;;4987488;28;20034;-62
2022/11/08 09:17:58;;;;;;;27.95;4.82;;;;;;;;;;4975348;28;20080;-62
2022/11/08 09:20:24;;;;;;;38.92;5.25;;;;;;;;;;4986439;28;20453;-62
2022/11/08 09:22:50;;;;;;;32.85;4.47;;;;;;;;;;4984154;28;20106;-62
2022/11/08 09:25:16;;;;;;;26.65;6.22;;;;;;;;;;4980625;28;20109;-62
2022/11/08 09:27:42;;;;;;;22.10;5.30;;;;;;;;;;4979701;28;20081;-61
2022/11/08 09:30:09;;;;;;;30.05;4.07;;;;;;;;;;4985319;28;20388;-62
2022/11/08 09:32:35;;;;;;;22.52;4.68;;;;;;;;;;4984944;28;20035;-62
2022/11/08 09:35:01;;;;;;;21.25;4.18;;;;;;;;;;4976159;28;20034;-62
2022/11/08 09:37:28;;;;;;;35.17;4.45;;;;;;;;;;4982021;28;20033;-61
2022/11/08 09:39:54;;;;;;;22.38;4.15;;;;;;;;;;4988675;28;20364;-62
2022/11/08 09:42:23;;;;;;;29.75;4.53;;;;;;;;;;4983674;28;20019;-62
2022/11/08 09:45:08;;;;;;;18.10;4.85;;;;;;;;;;4982035;28;20028;-61
2022/11/08 09:47:36;;;;;;;17.48;3.20;;;;;;;;;;4981638;28;20050;-62
2022/11/08 09:50:05;;;;;;;23.35;2.78;;;;;;;;;;4984235;28;20091;-61
2022/11/08 09:52:32;;;;;;;12.18;2.42;;;;;;;;;;4987639;28;20433;-62
2022/11/08 09:55:22;;;;;;;9.13;1.70;;;;;;;;;;4988242;28;20472;-62
2022/11/08 09:57:56;;;;;;;14.95;2.88;;;;;;;;;;4976692;28;20043;-62
2022/11/08 10:00:22;;;;;;;20.10;4.07;;;;;;;;;;4983164;28;20116;-62
2022/11/08 10:02:48;;;;;;;17.38;2.83;;;;;;;;;;4986423;28;20508;-62
2022/11/08 10:05:16;;;;;;;19.67;2.88;;;;;;;;;;4989969;28;20039;-62
2022/11/08 10:07:51;;;;;;;18.42;3.63;;;;;;;;;;4976137;28;20036;-62
2022/11/08 10:10:23;;;;;;;20.42;3.97;;;;;;;;;;4983480;28;20117;-61
2022/11/08 10:12:57;;;;;;;25.88;4.13;;;;;;;;;;4984580;28;20023;-62
2022/11/08 10:15:26;;;;;;;29.52;4.88;;;;;;;;;;4983621;28;20065;-62
2022/11/08 10:17:55;;;;;;;30.88;4.60;;;;;;;;;;4981230;28;20776;-61
2022/11/08 10:20:21;;;;;;;28.05;5.55;;;;;;;;;;4986312;28;20046;-62
2022/11/08 10:22:54;;;;;;;32.70;4.80;;;;;;;;;;4978505;28;20109;-62
2022/11/08 10:25:20;;;;;;;;;;;;;;;;;;4981619;28;20030;-62
2022/11/08 10:27:46;;;;;;;27.85;4.25;;;;;;;;;;4977352;28;19906;-62
2022/11/08 10:30:22;;;;;;;31.90;5.15;;;;;;;;;;4976287;28;20041;-62
2022/11/08 10:32:53;;;;;;;38.25;5.53;;;;;;;;;;4973373;28;20452;-62
2022/11/08 10:35:25;;;;;;;31.88;5.43;;;;;;;;;;4980548;28;20041;-62
2022/11/08 10:37:52;;;;;;;19.97;5.07;;;;;;;;;;4976056;28;20038;-62
2022/11/08 10:40:39;;;;;;;19.05;4.35;;;;;;;;;;4988849;28;20037;-62
2022/11/08 10:43:08;;;;;;;37.42;4.57;;;;;;;;;;4969370;28;20470;-61
2022/11/08 10:45:34;;;;;;;25.27;5.65;;;;;;;;;;4984071;28;20097;-62
2022/11/08 10:48:00;;;;;;;17.48;3.72;;;;;;;;;;4981816;28;20041;-62
2022/11/08 10:50:46;;;;;;;19.85;4.10;;;;;;;;;;4977441;28;20031;-62
2022/11/08 10:53:17;;;;;;;33.17;4.30;;;;;;;;;;4987767;28;20041;-62
2022/11/08 10:55:48;;;;;;;24.58;4.82;;;;;;;;;;4978105;28;20023;-62
2022/11/08 10:58:27;;;;;;;17.63;3.72;;;;;;;;;;4988158;28;20073;-62
2022/11/08 11:01:02;;;;;;;30.00;3.53;;;;;;;;;;4981547;28;20039;-62
2022/11/08 11:03:29;;;;;;;21.58;4.20;;;;;;;;;;4976454;28;20047;-62
2022/11/08 11:05:59;;;;;;;18.27;2.63;;;;;;;;;;4973838;28;20034;-62
2022/11/08 11:08:26;;;;;;;16.50;3.72;;;;;;;;;;4980918;28;20105;-63
2022/11/08 11:10:53;;;;;;;13.75;2.72;;;;;;;;;;4978269;28;20034;-61
2022/11/08 11:13:26;;;;;;;16.77;3.13;;;;;;;;;;4982134;28;20062;-62
2022/11/08 11:15:56;;;;;;;17.60;4.22;;;;;;;;;;4981607;28;20069;-62
2022/11/08 11:18:34;;;;;;;17.42;3.80;;;;;;;;;;4986315;28;20407;-62
2022/11/08 11:21:11;;;;;;;17.65;3.28;;;;;;;;;;4977363;28;20031;-62
2022/11/08 11:23:42;;;;;;;25.67;4.50;;;;;;;;;;4983840;28;20026;-62
2022/11/08 11:26:16;;;;;;;18.70;3.42;;;;;;;;;;4981102;28;20031;-62
2022/11/08 11:29:08;;;;;;;21.83;4.18;;;;;;;;;;4977384;28;20026;-62
2022/11/08 11:31:34;;;;;;;25.63;5.22;;;;;;;;;;4978225;28;20457;-62
2022/11/08 11:34:20;;;;;;;25.85;3.90;;;;;;;;;;4979785;28;20048;-62
2022/11/08 11:36:46;;;;;;;36.35;5.28;;;;;;;;;;4983351;28;20172;-61
2022/11/08 11:39:18;;;;;;;21.77;4.32;;;;;;;;;;4978714;28;20015;-62
2022/11/08 11:42:07;;;;;;;31.27;5.93;;;;;;;;;;4976792;28;20029;-61
2022/11/08 11:44:38;;;;;;;30.02;4.50;;;;;;;;;;5042214;28;20411;-62
2022/11/08 11:47:12;;;;;;;26.05;5.05;;;;;;;;;;5044511;28;20584;-62
2022/11/08 11:49:39;;;;;;;27.38;3.75;;;;;;;;;;5036382;28;20037;-62
2022/11/08 11:52:13;;;;;;;27.35;4.93;;;;;;;;;;5045932;28;20490;-62
2022/11/08 11:54:40;;;;;;;29.08;5.80;;;;;;;;;;5043794;28;20119;-61
2022/11/08 11:57:22;;;;;;;27.48;5.22;;;;;;;;;;5044173;28;20025;-62
2022/11/08 11:59:58;;;;;;;29.35;5.25;;;;;;;;;;5044022;28;20052;-61
2022/11/08 12:02:45;;;;;;;27.33;6.20;;;;;;;;;;5044186;28;20065;-61
2022/11/08 12:05:14;;;;;;;18.85;4.25;;;;;;;;;;5043719;28;20037;-62
2022/11/08 12:08:00;;;;;;;25.15;4.30;;;;;;;;;;5034713;28;20063;-62
2022/11/08 12:10:26;;;;;;;29.45;5.03;;;;;;;;;;5037583;28;20039;-61
2022/11/08 12:13:11;;;;;;;23.58;4.15;;;;;;;;;;5050273;28;20486;-61
2022/11/08 12:15:37;;;;;;;35.03;5.30;;;;;;;;;;5043303;28;20084;-61
2022/11/08 12:18:18;;;;;;;26.02;4.50;;;;;;;;;;5048580;28;20062;-61
2022/11/08 12:20:53;;;;;;;30.95;5.18;;;;;;;;;;5036143;28;20548;-61
2022/11/08 12:23:20;;;;;;;24.13;4.60;;;;;;;;;;4987672;28;20079;-61
2022/11/08 12:25:52;;;;;;;22.33;4.57;;;;;;;;;;4989752;28;20015;-61
2022/11/08 12:28:24;;;;;;;28.50;3.97;;;;;;;;;;4988572;28;20039;-61
2022/11/08 12:30:58;;;;;;;21.33;3.88;;;;;;;;;;4985024;28;20022;-61
2022/11/08 12:33:27;;;;;;;21.13;3.40;;;;;;;;;;5000374;28;20027;-62
2022/11/08 12:36:05;;;;;;;23.60;4.35;;;;;;;;;;4989091;28;20034;-61
2022/11/08 12:38:31;;;;;;;22.58;4.30;;;;;;;;;;4985941;28;20088;-62
2022/11/08 12:41:03;;;;;;;23.83;4.13;;;;;;;;;;4984469;28;20072;-62
2022/11/08 12:43:35;;;;;;;23.40;3.25;;;;;;;;;;4982249;28;20031;-62
2022/11/08 12:46:01;;;;;;;27.73;4.72;;;;;;;;;;4985514;28;20089;-62
2022/11/08 12:48:38;;;;;;;22.30;4.03;;;;;;;;;;4987915;28;20039;-62
2022/11/08 12:51:08;;;;;;;27.23;3.55;;;;;;;;;;4983025;28;20054;-62
2022/11/08 12:53:47;;;;;;;23.05;3.60;;;;;;;;;;4986775;28;20029;-62
2022/11/08 12:56:25;;;;;;;22.88;3.25;;;;;;;;;;4983074;28;20691;-62
2022/11/08 12:58:53;;;;;;;20.42;3.30;;;;;;;;;;4985608;28;20022;-61
2022/11/08 13:01:19;;;;;;;26.38;4.57;;;;;;;;;;4986283;28;20124;-62
2022/11/08 13:03:53;;;;;;;17.52;3.10;;;;;;;;;;4981222;28;20484;-62
2022/11/08 13:06:41;;;;;;;20.15;4.03;;;;;;;;;;4985501;28;20030;-61
2022/11/08 13:09:12;;;;;;;18.58;3.78;;;;;;;;;;4996890;28;20487;-62
2022/11/08 13:11:51;;;;;;;22.27;3.83;;;;;;;;;;4998311;28;20117;-62
2022/11/08 13:14:18;;;;;;;31.55;4.72;;;;;;;;;;4990218;28;20031;-62
2022/11/08 13:16:46;;;;;;;29.88;5.05;;;;;;;;;;4985654;28;20031;-62
2022/11/08 13:19:38;;;;;;;22.73;3.72;;;;;;;;;;4981359;28;20141;-61
2022/11/08 13:22:24;;;;;;;28.85;4.40;;;;;;;;;;4903693;29;20124;-62
2022/11/08 13:24:50;;;;;;;24.95;4.18;;;;;;;;;;4904980;29;20032;-61
2022/11/08 13:27:23;;;;;;;24.17;3.72;;;;;;;;;;4902518;29;20446;-61
2022/11/08 13:29:50;;;;;;;23.00;4.00;;;;;;;;;;4896275;29;20434;-62
2022/11/08 13:32:27;;;;;;;21.63;4.40;;;;;;;;;;4902129;29;20127;-61
2022/11/08 13:35:05;;;;;;;23.25;4.07;;;;;;;;;;4896510;29;20029;-61
2022/11/08 13:37:42;;;;;;;37.17;4.85;;;;;;;;;;4902037;29;20084;-61
2022/11/08 13:40:17;;;;;;;23.02;4.60;;;;;;;;;;4902140;29;20474;-62
2022/11/08 13:42:49;;;;;;;30.30;5.45;;;;;;;;;;4905481;29;20040;-61
2022/11/08 13:45:24;;;;;;;20.52;3.65;;;;;;;;;;4901598;29;20127;-62
2022/11/08 13:47:52;;;;;;;23.77;4.53;;;;;;;;;;4903668;29;20033;-61
2022/11/08 13:50:38;;;;;;;21.13;4.05;;;;;;;;;;4903938;29;20091;-62
2022/11/08 13:53:09;;;;;;;26.05;4.18;;;;;;;;;;4896067;29;20056;-62
2022/11/08 13:55:41;;;;;;;17.90;3.60;;;;;;;;;;4899532;29;20044;-62
2022/11/08 13:58:26;;;;;;;30.50;3.47;;;;;;;;;;4915086;28;20042;-62
2022/11/08 14:00:52;;;;;;;19.05;4.38;;;;;;;;;;4983753;28;20042;-62
2022/11/08 14:03:33;;;;;;;21.95;4.25;;;;;;;;;;4977373;28;20427;-61
2022/11/08 14:06:02;;;;;;;26.33;3.70;;;;;;;;;;4978997;28;20018;-61
2022/11/08 14:08:30;;;;;;;25.60;4.20;;;;;;;;;;4988195;28;20029;-61
2022/11/08 14:11:02;;;;;;;23.58;3.78;;;;;;;;;;4986073;28;20031;-62
2022/11/08 14:13:37;;;;;;;23.15;3.58;;;;;;;;;;4980599;28;20039;-61
2022/11/08 14:16:07;;;;;;;22.52;4.28;;;;;;;;;;4984007;28;20377;-61
2022/11/08 14:18:34;;;;;;;18.52;4.43;;;;;;;;;;4982410;28;20030;-61
2022/11/08 14:21:02;;;;;;;30.15;4.28;;;;;;;;;;4980074;28;20035;-62
2022/11/08 14:23:30;;;;;;;26.80;3.78;;;;;;;;;;4988450;28;20022;-62
2022/11/08 14:25:57;;;;;;;20.58;3.58;;;;;;;;;;4985604;28;20430;-62
2022/11/08 14:28:33;;;;;;;18.02;3.22;;;;;;;;;;4987586;28;20031;-62
2022/11/08 14:31:00;;;;;;;15.88;2.90;;;;;;;;;;4977892;28;20035;-62
2022/11/08 14:33:27;;;;;;;12.52;2.53;;;;;;;;;;4979812;28;20066;-62
2022/11/08 14:35:58;;;;;;;23.50;3.60;;;;;;;;;;4985339;28;20039;-61
2022/11/08 14:38:25;;;;;;;22.27;2.97;;;;;;;;;;4981416;28;20045;-61
2022/11/08 14:40:53;;;;;;;14.70;2.60;;;;;;;;;;4982788;28;20082;-62
2022/11/08 14:43:20;;;;;;;19.98;3.00;;;;;;;;;;4987202;28;20403;-62
2022/11/08 14:45:46;;;;;;;18.65;2.92;;;;;;;;;;4986606;28;20566;-62
2022/11/08 14:48:19;;;;;;;24.00;4.65;;;;;;;;;;4985069;28;20130;-62
2022/11/08 14:50:45;;;;;;;17.95;3.85;;;;;;;;;;4982993;28;20036;-61
2022/11/08 14:53:28;;;;;;;19.92;3.40;;;;;;;;;;4981924;28;20395;-61
2022/11/08 14:56:13;;;;;;;14.85;3.10;;;;;;;;;;4980423;28;20057;-61
2022/11/08 14:58:39;;;;;;;23.42;3.67;;;;;;;;;;4974260;28;20039;-61
2022/11/08 15:01:07;;;;;;;18.50;3.28;;;;;;;;;;4984257;28;20019;-61